Airfield :
LOGIN :

Register | Disclaimer

   EN    FR    IT 

 










Legend :    VFR   Marginal VFR   IFR   Intensive IFR   Very Intensive IFR
Visi :
Ceiling :
>= 8 km
>= 3000ft
5 to 8 km
1000 to 3000 ft
1500m to 5 km
500 to 1000 ft
800 to 1500m
200 to 500 ft
< 800m
< 200 ft
Symbols :   Thunderstorms  Fog  Heavy snow  Heavy precipitations  Wind > 20 kt
SIGMETs :     Misc.  Thunderstorms  Icing  Turbulence  Mountain Waves  Volcanic Ashes






- Airport Elevation : 238 ft
- IATA code : FAB


EGLF - Farnborough

CURRENT METAR :
  • 271350Z AUTO 25013KT 9999 FEW046/// 17/07 Q1012

EXPIRED METARs :
  • 271320Z AUTO 25020KT 9999 SCT040/// BKN046/// 17/08 Q1012
  • 271250Z AUTO 26013KT 230V290 9999 FEW036/// 16/08 Q1012
  • 271220Z AUTO 25012KT 220V300 9999 SCT033/// SCT040/// 16/09 Q1011
  • 271150Z AUTO 25017KT 9999 SCT031/// BKN046/// 15/08 Q1011
  • 271120Z 25016G26KT 220V290 9999 FEW029 SCT034 15/09 Q1010

TAF TAF EGLF
Valid from the 27 at 12:00 until the 27 at 21:00 UTC


271053Z 2712/2721 25012KT 9999 FEW040
PROB30
TEMPO 2712/2717 7000 SHRA
PROB30
TEMPO 2712/2715 26016G26KT
ATIS : +44 09063 800 400 (*282)



MET'MAP, your aeronautical weather chart ! - Copyright ORBIFLY December 2007 - Disclaimer

ORBIFLY MET'MAP TEAM :

Programming & Development : Alexandra Zaïnal
Concept & original design : Baudouin d'Aumeries
Assistance for programming : Marc-Olivier Méhu
Technical & hardware support : Manuel Goepfert

Contact : metmap@orbifly.com




SOURCES & CREDITS :

   NOAA